Time;durP1;ratioP1;P1;durP2;ratioP2;P2;SDS_P1;SDS_P2;PMS_P1;PMS_P2;Temp;Humidity;BMP_temperature;BMP_pressure;BME280_temperature;BME280_humidity;BME280_pressure;Samples;Min_cycle;Max_cycle;Signal;HPM_P1;HPM_P2
2022/01/08 00:00:05;;;;;;;;;;;22.40;52.10;;;;;;5081055;28;972;-39
2022/01/08 00:02:32;;;;;;;;;;;22.50;52.10;;;;;;5080200;28;929;-39
2022/01/08 00:05:00;;;;;;;;;;;22.50;51.90;;;;;;5080867;28;1012;-39
2022/01/08 00:07:27;;;;;;;;;;;22.40;52.10;;;;;;5080324;28;1009;-41
2022/01/08 00:09:54;;;;;;;;;;;22.40;52.20;;;;;;5080895;28;998;-41
2022/01/08 00:12:20;;;;;;;;;;;22.40;52.30;;;;;;5081305;28;956;-40
2022/01/08 00:14:47;;;;;;;;;;;22.30;52.40;;;;;;5080823;28;1897;-40
2022/01/08 00:17:14;;;;;;;;;;;22.30;52.50;;;;;;5080808;28;1773;-39
2022/01/08 00:19:41;;;;;;;;;;;22.30;52.50;;;;;;5081096;28;1051;-39
2022/01/08 00:22:11;;;;;;;;;;;22.30;52.50;;;;;;5080726;28;949;-39
2022/01/08 00:24:38;;;;;;;;;;;22.30;52.40;;;;;;5080522;28;904;-42
2022/01/08 00:27:05;;;;;;;;;;;22.30;52.40;;;;;;5080504;28;980;-39
2022/01/08 00:29:32;;;;;;;;;;;22.30;52.50;;;;;;5080392;28;999;-40
2022/01/08 00:31:58;;;;;;;;;;;22.30;52.50;;;;;;5080513;28;968;-39
2022/01/08 00:34:25;;;;;;;;;;;22.30;52.50;;;;;;5080335;28;941;-42
2022/01/08 00:36:52;;;;;;;;;;;22.40;52.50;;;;;;5080099;28;1902;-41
2022/01/08 00:39:20;;;;;;;;;;;22.30;52.40;;;;;;5080977;28;1021;-41
2022/01/08 00:41:47;;;;;;;;;;;22.40;52.50;;;;;;5080185;28;987;-39
2022/01/08 00:44:16;;;;;;;;;;;22.30;52.40;;;;;;5080431;28;968;-41
2022/01/08 00:46:43;;;;;;;;;;;22.40;52.40;;;;;;5080315;28;936;-39
2022/01/08 00:49:09;;;;;;;;;;;22.30;52.50;;;;;;5080152;28;937;-41
2022/01/08 00:51:36;;;;;;;;;;;22.30;52.50;;;;;;5080133;28;984;-39
2022/01/08 00:54:03;;;;;;;;;;;22.40;52.50;;;;;;5080421;28;996;-39
2022/01/08 00:56:31;;;;;;;;;;;22.40;52.50;;;;;;5079831;28;1988;-40
2022/01/08 00:58:58;;;;;;;;;;;22.40;52.40;;;;;;5079885;28;996;-42
2022/01/08 01:01:25;;;;;;;;;;;22.40;52.50;;;;;;5079599;28;961;-44
2022/01/08 01:03:52;;;;;;;;;;;22.40;52.50;;;;;;5079814;28;1035;-45
2022/01/08 01:06:18;;;;;;;;;;;22.40;52.40;;;;;;5077784;28;952;-42
2022/01/08 01:08:45;;;;;;;;;;;22.40;52.50;;;;;;5079980;28;952;-43
2022/01/08 01:11:12;;;;;;;;;;;22.40;52.50;;;;;;5079932;28;996;-41
2022/01/08 01:13:40;;;;;;;;;;;22.40;52.40;;;;;;5080098;28;916;-43
2022/01/08 01:16:07;;;;;;;;;;;22.40;52.40;;;;;;5079150;28;1909;-41
2022/01/08 01:18:35;;;;;;;;;;;22.40;52.40;;;;;;5079780;28;992;-42
2022/01/08 01:21:02;;;;;;;;;;;22.40;52.30;;;;;;5079420;28;984;-43
2022/01/08 01:23:33;;;;;;;;;;;22.40;52.40;;;;;;5079660;28;1003;-42
2022/01/08 01:26:03;;;;;;;;;;;22.40;52.50;;;;;;5079196;28;933;-41
2022/01/08 01:28:42;;;;;;;;;;;22.40;52.30;;;;;;5079474;28;1004;-44
2022/01/08 01:42:39;;;;;;;;;;;22.40;52.30;;;;;;5078914;28;656;-39
2022/01/08 01:47:55;;;;;;;;;;;22.50;52.40;;;;;;5079251;28;1035;-38
2022/01/08 01:50:22;;;;;;;;;;;22.50;52.40;;;;;;5078638;28;952;-39
2022/01/08 01:52:49;;;;;;;;;;;22.50;52.30;;;;;;5079052;28;932;-39
2022/01/08 01:55:16;;;;;;;;;;;22.50;52.30;;;;;;5079021;28;1897;-39
2022/01/08 01:57:42;;;;;;;;;;;22.50;52.30;;;;;;5079010;28;1031;-39
2022/01/08 02:00:10;;;;;;;;;;;22.50;52.30;;;;;;5078904;28;984;-38
2022/01/08 02:02:36;;;;;;;;;;;22.50;52.30;;;;;;5078627;28;996;-40
2022/01/08 02:05:05;;;;;;;;;;;22.50;52.30;;;;;;5078895;28;991;-39
2022/01/08 02:07:31;;;;;;;;;;;22.50;52.40;;;;;;5079225;28;936;-40
2022/01/08 02:09:58;;;;;;;;;;;22.50;52.40;;;;;;5078852;28;956;-39
2022/01/08 02:12:25;;;;;;;;;;;22.50;52.40;;;;;;5078651;28;972;-39
2022/01/08 02:14:52;;;;;;;;;;;22.50;52.40;;;;;;5078888;28;1024;-39
2022/01/08 02:17:19;;;;;;;;;;;22.50;52.40;;;;;;5076996;28;1979;-39
2022/01/08 02:19:45;;;;;;;;;;;22.50;52.40;;;;;;5078327;28;1035;-40
2022/01/08 02:22:16;;;;;;;;;;;22.50;52.40;;;;;;5077686;28;1477;-39
2022/01/08 02:24:44;;;;;;;;;;;22.50;52.40;;;;;;5078126;28;1079;-39
2022/01/08 02:27:10;;;;;;;;;;;22.50;52.40;;;;;;5078498;28;887;-43
2022/01/08 02:29:37;;;;;;;;;;;22.50;52.40;;;;;;5078614;28;1022;-44
2022/01/08 02:32:06;;;;;;;;;;;22.50;52.40;;;;;;5078305;28;996;-41
2022/01/08 02:34:32;;;;;;;;;;;22.50;52.40;;;;;;5078886;28;940;-41
2022/01/08 02:37:00;;;;;;;;;;;22.40;52.30;;;;;;5078494;28;1906;-42
2022/01/08 02:39:30;;;;;;;;;;;22.40;52.30;;;;;;5078757;28;1023;-44
2022/01/08 02:41:59;;;;;;;;;;;22.50;52.30;;;;;;5078669;28;1047;-44
2022/01/08 02:44:26;;;;;;;;;;;22.50;52.40;;;;;;5078615;28;991;-45
2022/01/08 02:46:53;;;;;;;;;;;22.40;52.30;;;;;;5078209;28;976;-43
2022/01/08 02:49:21;;;;;;;;;;;22.40;52.20;;;;;;5078606;28;1046;-44
2022/01/08 02:51:48;;;;;;;;;;;22.50;52.20;;;;;;5077952;28;960;-43
2022/01/08 02:54:15;;;;;;;;;;;22.40;52.10;;;;;;5078395;28;956;-43
2022/01/08 02:56:44;;;;;;;;;;;22.40;52.20;;;;;;5078032;28;1981;-42
2022/01/08 02:59:10;;;;;;;;;;;22.40;52.10;;;;;;5078736;28;951;-43
2022/01/08 03:01:37;;;;;;;;;;;22.40;52.10;;;;;;5077648;28;872;-43
2022/01/08 03:04:05;;;;;;;;;;;22.40;52.10;;;;;;5078090;28;1191;-41
2022/01/08 03:06:32;;;;;;;;;;;22.40;52.20;;;;;;5078153;28;998;-45
2022/01/08 03:08:58;;;;;;;;;;;22.40;52.20;;;;;;5078039;28;1025;-44
2022/01/08 03:11:25;;;;;;;;;;;22.40;52.40;;;;;;5078145;28;917;-42
2022/01/08 03:13:53;;;;;;;;;;;22.40;52.40;;;;;;5078057;28;1014;-43
2022/01/08 03:16:20;;;;;;;;;;;22.40;52.50;;;;;;5078075;28;1910;-42
2022/01/08 03:18:48;;;;;;;;;;;22.40;52.40;;;;;;5078247;28;881;-42
2022/01/08 03:21:17;;;;;;;;;;;22.40;52.40;;;;;;5077886;28;965;-43
2022/01/08 03:23:49;;;;;;;;;;;22.40;52.40;;;;;;5077808;28;1004;-45
2022/01/08 03:26:16;;;;;;;;;;;22.40;52.40;;;;;;5078330;28;1034;-41
2022/01/08 03:28:44;;;;;;;;;;;22.40;52.40;;;;;;5080252;28;978;-41
2022/01/08 03:31:12;;;;;;;;;;;22.40;52.40;;;;;;5081943;28;998;-44
2022/01/08 03:33:39;;;;;;;;;;;22.40;52.40;;;;;;5082080;28;1007;-43
2022/01/08 03:36:06;;;;;;;;;;;22.50;52.40;;;;;;5081930;28;1901;-44
2022/01/08 03:38:34;;;;;;;;;;;22.40;52.40;;;;;;5081497;28;1052;-41
2022/01/08 03:41:01;;;;;;;;;;;22.40;52.40;;;;;;5081972;28;1016;-43
2022/01/08 03:43:27;;;;;;;;;;;22.40;52.40;;;;;;5081611;28;988;-44
2022/01/08 03:45:54;;;;;;;;;;;22.40;52.30;;;;;;5081528;28;980;-46
2022/01/08 03:48:29;;;;;;;;;;;22.40;52.30;;;;;;5081861;28;987;-44
2022/01/08 03:50:56;;;;;;;;;;;22.40;52.30;;;;;;5082039;28;1059;-42
2022/01/08 03:53:23;;;;;;;;;;;22.40;52.40;;;;;;5081388;28;1043;-41
2022/01/08 03:55:50;;;;;;;;;;;22.40;52.30;;;;;;5081600;28;1015;-43
2022/01/08 03:58:18;;;;;;;;;;;22.40;52.30;;;;;;5081715;28;1901;-44
2022/01/08 04:00:45;;;;;;;;;;;22.50;52.40;;;;;;5081436;28;1008;-43
2022/01/08 04:03:11;;;;;;;;;;;22.40;52.40;;;;;;5081289;28;999;-45
2022/01/08 04:05:40;;;;;;;;;;;22.40;52.30;;;;;;5081651;28;1026;-42
2022/01/08 04:08:06;;;;;;;;;;;22.40;52.30;;;;;;5081130;28;1259;-41
2022/01/08 04:10:33;;;;;;;;;;;22.40;52.30;;;;;;5081097;28;1020;-42
2022/01/08 04:13:08;;;;;;;;;;;22.40;52.10;;;;;;5081382;28;1013;-43
2022/01/08 04:15:37;;;;;;;;;;;22.40;52.00;;;;;;5080969;28;1005;-44
2022/01/08 04:18:04;;;;;;;;;;;22.40;51.80;;;;;;5081054;28;1977;-39
2022/01/08 04:20:31;;;;;;;;;;;22.40;51.80;;;;;;5080851;28;1113;-38
2022/01/08 04:22:59;;;;;;;;;;;22.40;51.80;;;;;;5080905;28;1011;-38
2022/01/08 04:25:26;;;;;;;;;;;22.40;51.80;;;;;;5081224;28;986;-39
2022/01/08 04:27:52;;;;;;;;;;;22.40;51.80;;;;;;5080647;28;1003;-39
2022/01/08 04:30:19;;;;;;;;;;;22.40;51.60;;;;;;5081031;28;1063;-40
2022/01/08 04:32:46;;;;;;;;;;;22.40;51.70;;;;;;5080168;28;963;-39
2022/01/08 04:35:13;;;;;;;;;;;22.40;51.90;;;;;;5080734;28;1032;-41
2022/01/08 04:37:40;;;;;;;;;;;22.40;52.00;;;;;;5080003;28;1965;-40
2022/01/08 04:40:08;;;;;;;;;;;22.40;52.20;;;;;;5079665;28;1014;-40
2022/01/08 04:42:35;;;;;;;;;;;22.30;52.10;;;;;;5080897;28;1058;-38
2022/01/08 04:45:02;;;;;;;;;;;22.40;52.20;;;;;;5080061;28;1020;-39
2022/01/08 04:47:28;;;;;;;;;;;22.40;52.20;;;;;;5080279;28;1060;-38
2022/01/08 04:49:55;;;;;;;;;;;22.40;52.20;;;;;;5080479;28;1027;-39
2022/01/08 04:52:22;;;;;;;;;;;22.40;52.20;;;;;;5080549;28;940;-39
2022/01/08 04:54:48;;;;;;;;;;;22.40;52.30;;;;;;5080515;28;996;-38
2022/01/08 04:57:16;;;;;;;;;;;22.40;52.20;;;;;;5079956;28;1898;-39
2022/01/08 04:59:43;;;;;;;;;;;22.40;52.30;;;;;;5080504;28;1047;-38
2022/01/08 05:02:10;;;;;;;;;;;22.40;52.20;;;;;;5080403;28;936;-39
2022/01/08 05:04:37;;;;;;;;;;;22.40;52.10;;;;;;5080019;28;992;-39
2022/01/08 05:07:04;;;;;;;;;;;22.40;52.10;;;;;;5080032;28;972;-39
2022/01/08 05:09:30;;;;;;;;;;;22.40;52.10;;;;;;5079916;28;1007;-43
2022/01/08 05:11:57;;;;;;;;;;;22.40;52.10;;;;;;5079918;28;972;-39
2022/01/08 05:14:26;;;;;;;;;;;22.40;52.00;;;;;;5079607;28;968;-39
2022/01/08 05:16:58;;;;;;;;;;;22.40;52.10;;;;;;5079882;28;1901;-42
2022/01/08 05:19:37;;;;;;;;;;;22.40;52.00;;;;;;5079828;28;1000;-39
2022/01/08 05:22:05;;;;;;;;;;;22.40;52.00;;;;;;5079090;28;992;-39
2022/01/08 05:24:32;;;;;;;;;;;22.40;53.10;;;;;;5079676;28;924;-39
2022/01/08 05:26:58;;;;;;;;;;;22.40;51.90;;;;;;5079367;28;964;-39
2022/01/08 05:29:26;;;;;;;;;;;22.40;51.90;;;;;;5079601;28;948;-42
2022/01/08 05:31:53;;;;;;;;;;;22.40;51.80;;;;;;5079206;28;1073;-40
2022/01/08 05:34:20;;;;;;;;;;;22.40;51.80;;;;;;5079511;28;940;-39
2022/01/08 05:36:46;;;;;;;;;;;22.40;51.70;;;;;;5079270;28;1906;-44
2022/01/08 05:39:14;;;;;;;;;;;22.40;51.60;;;;;;5078856;28;1007;-42
2022/01/08 05:41:40;;;;;;;;;;;22.40;51.60;;;;;;5079297;28;1147;-44
2022/01/08 05:44:07;;;;;;;;;;;22.40;51.60;;;;;;5079389;28;987;-44
2022/01/08 05:46:35;;;;;;;;;;;22.40;51.40;;;;;;5079111;28;1304;-41
2022/01/08 05:49:03;;;;;;;;;;;22.40;51.50;;;;;;5079077;28;956;-42
2022/01/08 05:51:29;;;;;;;;;;;22.40;51.40;;;;;;5078803;28;1068;-43
2022/01/08 05:53:56;;;;;;;;;;;22.40;51.40;;;;;;5079837;28;959;-41
2022/01/08 05:56:23;;;;;;;;;;;22.40;51.80;;;;;;5079473;28;968;-45
2022/01/08 05:58:50;;;;;;;;;;;22.30;51.80;;;;;;5079071;28;1973;-42
2022/01/08 06:01:17;;;;;;;;;;;22.30;51.90;;;;;;5079293;28;1016;-41
2022/01/08 06:03:45;;;;;;;;;;;22.30;52.00;;;;;;5078842;28;987;-38
2022/01/08 06:06:12;;;;;;;;;;;22.40;52.10;;;;;;5078801;28;1034;-39
2022/01/08 06:08:38;;;;;;;;;;;22.30;52.00;;;;;;5078548;28;1018;-39
2022/01/08 06:11:05;;;;;;;;;;;22.30;52.00;;;;;;5078718;28;1107;-42
2022/01/08 06:13:32;;;;;;;;;;;22.40;52.00;;;;;;5078864;28;1017;-39
2022/01/08 06:15:58;;;;;;;;;;;22.40;52.00;;;;;;5078839;28;1023;-39
2022/01/08 06:18:25;;;;;;;;;;;22.40;52.00;;;;;;5078813;28;1902;-39
2022/01/08 06:20:55;;;;;;;;;;;22.40;52.00;;;;;;5077767;28;986;-41
2022/01/08 06:23:22;;;;;;;;;;;22.40;52.00;;;;;;5078478;28;960;-38
2022/01/08 06:25:49;;;;;;;;;;;22.40;51.80;;;;;;5078908;28;1001;-42
2022/01/08 06:28:16;;;;;;;;;;;22.40;51.90;;;;;;5078625;28;996;-41
2022/01/08 06:30:42;;;;;;;;;;;22.40;51.90;;;;;;5078313;28;969;-45
2022/01/08 06:33:09;;;;;;;;;;;22.40;51.90;;;;;;5078630;28;948;-42
2022/01/08 06:35:36;;;;;;;;;;;22.40;51.90;;;;;;5078171;28;972;-42
2022/01/08 06:38:04;;;;;;;;;;;22.40;51.90;;;;;;5077896;28;1975;-45
2022/01/08 06:40:31;;;;;;;;;;;22.40;51.90;;;;;;5078311;28;1005;-44
2022/01/08 06:42:58;;;;;;;;;;;22.40;51.90;;;;;;5078102;28;1117;-38
2022/01/08 06:45:24;;;;;;;;;;;22.40;51.80;;;;;;5077433;28;948;-39
2022/01/08 06:47:51;;;;;;;;;;;22.40;51.70;;;;;;5078183;28;1015;-38
2022/01/08 06:50:18;;;;;;;;;;;22.40;51.50;;;;;;5077821;28;1015;-39
2022/01/08 06:52:45;;;;;;;;;;;22.40;51.60;;;;;;5077808;28;984;-38
2022/01/08 06:55:13;;;;;;;;;;;22.40;51.40;;;;;;5078007;28;1015;-38
2022/01/08 06:57:40;;;;;;;;;;;22.40;51.40;;;;;;5078177;28;1902;-39
2022/01/08 07:00:07;;;;;;;;;;;22.40;51.30;;;;;;5077587;28;928;-42
2022/01/08 07:02:33;;;;;;;;;;;22.40;51.30;;;;;;5077324;28;952;-43
2022/01/08 07:05:00;;;;;;;;;;;22.40;51.30;;;;;;5077176;28;1007;-43
2022/01/08 07:07:27;;;;;;;;;;;22.40;51.30;;;;;;5077881;28;1051;-42
2022/01/08 07:09:54;;;;;;;;;;;22.40;51.30;;;;;;5077707;28;986;-41
2022/01/08 07:12:22;;;;;;;;;;;22.40;51.30;;;;;;5077701;28;957;-41
2022/01/08 07:14:48;;;;;;;;;;;22.30;51.40;;;;;;5077492;28;1027;-39
2022/01/08 07:17:15;;;;;;;;;;;22.40;51.60;;;;;;5077759;28;1901;-45
2022/01/08 07:19:42;;;;;;;;;;;22.40;51.30;;;;;;5077990;28;980;-45
2022/01/08 07:22:08;;;;;;;;;;;22.40;51.50;;;;;;5077334;28;981;-45
2022/01/08 07:24:35;;;;;;;;;;;22.50;51.40;;;;;;5077543;28;1016;-45
2022/01/08 07:27:03;;;;;;;;;;;22.50;51.50;;;;;;5077567;28;954;-43
2022/01/08 07:29:31;;;;;;;;;;;22.40;51.70;;;;;;5077570;28;865;-45
2022/01/08 07:31:57;;;;;;;;;;;22.40;51.80;;;;;;5077070;28;1775;-45
2022/01/08 07:34:24;;;;;;;;;;;22.50;51.80;;;;;;5076980;28;1000;-45
2022/01/08 07:36:51;;;;;;;;;;;22.60;51.90;;;;;;5077079;28;1109;-42
2022/01/08 07:39:18;;;;;;;;;;;22.70;51.90;;;;;;5077223;28;1898;-41
2022/01/08 07:41:45;;;;;;;;;;;22.70;51.70;;;;;;5077561;28;992;-42
2022/01/08 07:44:11;;;;;;;;;;;22.80;51.80;;;;;;5077086;28;1011;-45
2022/01/08 07:46:39;;;;;;;;;;;22.80;51.60;;;;;;5077163;28;1000;-44
2022/01/08 07:49:06;;;;;;;;;;;22.90;51.70;;;;;;5076866;28;1003;-44
2022/01/08 07:51:33;;;;;;;;;;;22.90;51.40;;;;;;5077344;28;995;-41
2022/01/08 07:54:00;;;;;;;;;;;22.90;51.50;;;;;;5077088;28;944;-42
2022/01/08 07:56:26;;;;;;;;;;;22.90;51.50;;;;;;5077223;28;998;-45
2022/01/08 07:58:53;;;;;;;;;;;22.90;51.40;;;;;;5076601;28;1973;-42
2022/01/08 08:01:21;;;;;;;;;;;22.90;51.30;;;;;;5076660;28;1007;-39
2022/01/08 08:03:49;;;;;;;;;;;22.90;52.40;;;;;;5076187;28;1015;-45
2022/01/08 08:06:16;;;;;;;;;;;23.00;51.40;;;;;;5075996;28;928;-44
2022/01/08 08:08:44;;;;;;;;;;;22.90;51.20;;;;;;5076302;28;983;-44
2022/01/08 08:11:11;;;;;;;;;;;22.80;51.40;;;;;;5075975;28;1014;-42
2022/01/08 08:13:38;;;;;;;;;;;22.80;51.50;;;;;;5075887;28;1051;-45
2022/01/08 08:16:05;;;;;;;;;;;22.80;51.50;;;;;;5079249;28;1004;-45
2022/01/08 08:18:32;;;;;;;;;;;22.70;51.50;;;;;;5080071;28;1890;-42
2022/01/08 08:21:00;;;;;;;;;;;22.70;51.60;;;;;;5079819;28;1034;-44
2022/01/08 08:23:27;;;;;;;;;;;22.70;51.70;;;;;;5079587;28;936;-41
2022/01/08 08:25:54;;;;;;;;;;;22.70;51.70;;;;;;5079663;28;969;-45
2022/01/08 08:28:20;;;;;;;;;;;22.70;51.80;;;;;;5079097;28;955;-44
2022/01/08 08:30:47;;;;;;;;;;;22.60;51.70;;;;;;5079337;28;1301;-41
2022/01/08 08:33:14;;;;;;;;;;;22.60;51.80;;;;;;5077770;28;979;-43
2022/01/08 08:35:41;;;;;;;;;;;22.60;51.80;;;;;;5078632;28;936;-45
2022/01/08 08:38:09;;;;;;;;;;;22.70;51.70;;;;;;5079422;28;1906;-42
2022/01/08 08:40:36;;;;;;;;;;;22.80;51.40;;;;;;5079368;28;948;-41
2022/01/08 08:43:02;;;;;;;;;;;22.90;51.30;;;;;;5079499;28;976;-42
2022/01/08 08:45:29;;;;;;;;;;;22.90;51.00;;;;;;5079075;28;1050;-43
2022/01/08 08:47:56;;;;;;;;;;;22.90;51.20;;;;;;5079077;28;955;-41
2022/01/08 08:50:23;;;;;;;;;;;22.70;51.40;;;;;;5078717;28;968;-44
2022/01/08 08:52:50;;;;;;;;;;;22.70;51.50;;;;;;5079722;28;991;-42
2022/01/08 08:55:19;;;;;;;;;;;22.70;51.60;;;;;;5079685;28;924;-41
2022/01/08 08:57:45;;;;;;;;;;;22.60;51.60;;;;;;5079121;28;1982;-45
2022/01/08 09:00:12;;;;;;;;;;;22.60;51.60;;;;;;5079339;28;953;-44
2022/01/08 09:02:40;;;;;;;;;;;22.60;51.70;;;;;;5079166;28;935;-44
2022/01/08 09:05:07;;;;;;;;;;;22.60;51.60;;;;;;5078850;28;976;-44
2022/01/08 09:07:34;;;;;;;;;;;22.60;51.70;;;;;;5077951;28;948;-43
2022/01/08 09:10:01;;;;;;;;;;;22.60;51.60;;;;;;5077547;28;1049;-41
2022/01/08 09:12:29;;;;;;;;;;;22.60;51.60;;;;;;5078350;28;1012;-41
2022/01/08 09:14:56;;;;;;;;;;;22.60;51.60;;;;;;5078476;28;956;-42
2022/01/08 09:17:24;;;;;;;;;;;22.60;51.60;;;;;;5078498;28;1010;-42
2022/01/08 09:19:51;;;;;;;;;;;22.60;51.60;;;;;;5077867;28;1902;-38
2022/01/08 09:22:18;;;;;;;;;;;22.60;51.70;;;;;;5078113;28;965;-38
2022/01/08 09:24:45;;;;;;;;;;;22.50;51.60;;;;;;5077402;28;1046;-39
2022/01/08 09:27:13;;;;;;;;;;;22.50;51.50;;;;;;5076365;28;1115;-38
2022/01/08 09:29:41;;;;;;;;;;;22.60;51.60;;;;;;5076975;28;1008;-38
2022/01/08 09:32:09;;;;;;;;;;;22.60;51.60;;;;;;5076851;28;881;-38
2022/01/08 09:34:36;;;;;;;;;;;22.60;51.50;;;;;;5078186;28;1008;-38
2022/01/08 09:37:04;;;;;;;;;;;22.60;51.50;;;;;;5076790;28;1070;-38
2022/01/08 09:39:31;;;;;;;;;;;22.50;51.50;;;;;;5076943;28;1902;-38
2022/01/08 09:41:57;;;;;;;;;;;22.60;51.50;;;;;;5077577;28;995;-38
2022/01/08 09:44:24;;;;;;;;;;;22.50;51.40;;;;;;5076885;28;1028;-41
2022/01/08 09:46:53;;;;;;;;;;;22.50;51.50;;;;;;5076236;28;1006;-44
2022/01/08 09:49:19;;;;;;;;;;;22.50;51.50;;;;;;5076265;28;941;-41
2022/01/08 09:51:46;;;;;;;;;;;22.50;51.40;;;;;;5076822;28;1021;-42
2022/01/08 09:54:13;;;;;;;;;;;22.50;51.50;;;;;;5076683;28;1015;-43
2022/01/08 09:56:39;;;;;;;;;;;22.50;51.50;;;;;;5076586;28;995;-41
2022/01/08 09:59:06;;;;;;;;;;;22.50;51.40;;;;;;5076651;28;1981;-42
2022/01/08 10:01:34;;;;;;;;;;;22.50;51.50;;;;;;5076628;28;1010;-41
2022/01/08 10:04:03;;;;;;;;;;;22.50;51.50;;;;;;5076785;28;980;-41
2022/01/08 10:06:31;;;;;;;;;;;22.50;51.60;;;;;;5076969;28;1012;-42
2022/01/08 10:08:58;;;;;;;;;;;22.50;51.60;;;;;;5076133;28;941;-41
2022/01/08 10:11:25;;;;;;;;;;;22.50;51.60;;;;;;5076722;28;980;-41
2022/01/08 10:14:01;;;;;;;;;;;22.50;51.60;;;;;;5074725;28;921;-42
2022/01/08 10:19:20;;;;;;;;;;;22.50;51.70;;;;;;5075313;28;1902;-42
2022/01/08 10:21:47;;;;;;;;;;;22.40;51.70;;;;;;5077265;28;964;-43
2022/01/08 10:24:18;;;;;;;;;;;22.50;51.80;;;;;;5076708;28;943;-44
2022/01/08 10:26:45;;;;;;;;;;;22.40;51.70;;;;;;5075867;28;991;-39
2022/01/08 10:29:13;;;;;;;;;;;22.50;51.70;;;;;;5076020;28;1043;-39
2022/01/08 10:31:41;;;;;;;;;;;22.40;51.70;;;;;;5076069;28;1018;-38
2022/01/08 10:34:09;;;;;;;;;;;22.40;51.70;;;;;;5076810;28;1035;-39
2022/01/08 10:36:38;;;;;;;;;;;22.40;51.70;;;;;;5077426;28;1004;-43
2022/01/08 10:39:05;;;;;;;;;;;22.40;51.90;;;;;;5075734;28;1906;-38
2022/01/08 10:41:32;;;;;;;;;;;22.40;51.80;;;;;;5075861;28;976;-38
2022/01/08 10:44:07;;;;;;;;;;;22.40;51.80;;;;;;5075287;28;1016;-38
2022/01/08 10:46:34;;;;;;;;;;;22.40;51.80;;;;;;5075635;28;1012;-39
2022/01/08 10:49:00;;;;;;;;;;;22.40;51.80;;;;;;5074699;28;996;-39
2022/01/08 10:51:36;;;;;;;;;;;22.40;51.80;;;;;;5074928;28;988;-40
2022/01/08 10:54:09;;;;;;;;;;;22.40;51.80;;;;;;5075836;28;1047;-41
2022/01/08 10:56:37;;;;;;;;;;;22.40;51.80;;;;;;5075827;28;1027;-38
2022/01/08 10:59:05;;;;;;;;;;;22.40;51.80;;;;;;5075035;28;1986;-46
2022/01/08 11:01:36;;;;;;;;;;;22.40;51.70;;;;;;5074965;28;986;-41
2022/01/08 11:04:03;;;;;;;;;;;22.40;51.80;;;;;;5075207;28;1059;-40
2022/01/08 11:06:30;;;;;;;;;;;22.40;51.70;;;;;;5074764;28;865;-40
2022/01/08 11:09:00;;;;;;;;;;;22.50;51.80;;;;;;5075491;28;963;-45
2022/01/08 11:11:30;;;;;;;;;;;22.50;51.70;;;;;;5074132;28;1032;-43
2022/01/08 11:14:03;;;;;;;;;;;22.50;51.80;;;;;;5075443;28;1004;-41
2022/01/08 11:16:31;;;;;;;;;;;22.50;51.70;;;;;;5075158;28;1052;-41
2022/01/08 11:18:59;;;;;;;;;;;22.50;51.70;;;;;;5075323;28;1902;-37
2022/01/08 11:21:26;;;;;;;;;;;22.50;51.70;;;;;;5075118;28;985;-37
2022/01/08 11:23:54;;;;;;;;;;;22.50;51.70;;;;;;5074806;28;1844;-38
2022/01/08 11:26:20;;;;;;;;;;;22.50;51.60;;;;;;5074677;28;1004;-38
2022/01/08 11:28:49;;;;;;;;;;;22.50;51.60;;;;;;5073994;28;940;-38
2022/01/08 11:31:16;;;;;;;;;;;22.50;51.60;;;;;;5073232;28;1005;-39
2022/01/08 11:33:48;;;;;;;;;;;22.50;51.60;;;;;;5076013;28;1830;-39
2022/01/08 11:36:16;;;;;;;;;;;22.50;51.60;;;;;;5073265;28;981;-38
2022/01/08 11:38:44;;;;;;;;;;;22.50;51.60;;;;;;5075107;28;1902;-38
2022/01/08 11:41:10;;;;;;;;;;;22.50;51.60;;;;;;5073830;28;1013;-39
2022/01/08 11:43:38;;;;;;;;;;;22.50;51.60;;;;;;5074691;28;857;-38
2022/01/08 11:46:07;;;;;;;;;;;22.60;51.60;;;;;;5075510;28;989;-38
2022/01/08 11:48:35;;;;;;;;;;;22.50;51.50;;;;;;5074402;28;937;-38
2022/01/08 11:51:03;;;;;;;;;;;22.50;51.50;;;;;;5078497;28;1050;-37
2022/01/08 11:53:30;;;;;;;;;;;22.50;51.60;;;;;;5079019;28;973;-37
2022/01/08 11:55:58;;;;;;;;;;;22.50;51.50;;;;;;5079586;28;1003;-37
2022/01/08 11:58:26;;;;;;;;;;;22.50;51.70;;;;;;5078293;28;977;-36
2022/01/08 12:00:55;;;;;;;;;;;22.50;51.70;;;;;;5079182;28;936;-36
2022/01/08 12:03:31;;;;;;;;;;;22.60;50.50;;;;;;5078957;28;886;-36
2022/01/08 12:05:58;;;;;;;;;;;22.50;46.80;;;;;;5079500;28;976;-36
2022/01/08 12:08:56;;;;;;;;;;;22.40;45.30;;;;;;5077693;28;904;-37
2022/01/08 12:11:24;;;;;;;;;;;22.30;43.60;;;;;;5076981;28;933;-37
2022/01/08 12:13:50;;;;;;;;;;;22.10;41.70;;;;;;5077793;28;1007;-38
2022/01/08 12:16:36;;;;;;;;;;;22.00;41.20;;;;;;5078329;28;912;-36
2022/01/08 12:19:05;;;;;;;;;;;22.00;42.10;;;;;;5077904;28;1967;-35
2022/01/08 12:21:36;;;;;;;;;;;22.20;42.80;;;;;;5079257;28;1017;-37
2022/01/08 12:24:22;;;;;;;;;;;22.20;43.50;;;;;;5078251;28;1008;-36
2022/01/08 12:26:49;;;;;;;;;;;22.20;43.90;;;;;;5079153;28;1108;-37
2022/01/08 12:29:30;;;;;;;;;;;22.20;44.60;;;;;;5078674;28;956;-36
2022/01/08 12:32:20;;;;;;;;;;;22.30;45.10;;;;;;5078319;28;998;-37
2022/01/08 12:34:50;;;;;;;;;;;22.30;45.30;;;;;;5076167;28;1003;-36
2022/01/08 12:37:17;;;;;;;;;;;22.40;45.70;;;;;;5076404;28;1195;-39
2022/01/08 12:39:48;;;;;;;;;;;22.40;45.90;;;;;;5077713;28;1918;-36
2022/01/08 12:42:34;;;;;;;;;;;22.40;46.10;;;;;;5077754;28;949;-36
2022/01/08 12:45:02;;;;;;;;;;;22.50;46.70;;;;;;5078138;28;1847;-37
2022/01/08 12:47:39;;;;;;;;;;;22.60;46.30;;;;;;5076993;28;936;-37
2022/01/08 12:50:25;;;;;;;;;;;22.60;46.50;;;;;;5077892;28;972;-36
2022/01/08 12:53:09;;;;;;;;;;;22.60;46.60;;;;;;5076045;28;877;-36
2022/01/08 12:55:38;;;;;;;;;;;22.70;46.60;;;;;;5074299;28;1433;-36
2022/01/08 12:58:12;;;;;;;;;;;22.70;46.70;;;;;;5078007;28;1108;-36
2022/01/08 13:00:52;;;;;;;;;;;22.70;46.90;;;;;;5076542;28;1906;-37
2022/01/08 13:03:21;;;;;;;;;;;22.60;46.50;;;;;;5076507;28;1008;-37
2022/01/08 13:05:47;;;;;;;;;;;22.60;46.50;;;;;;5078420;28;949;-37
2022/01/08 13:08:21;;;;;;;;;;;22.60;46.40;;;;;;5077390;28;948;-37
2022/01/08 13:10:49;;;;;;;;;;;22.50;46.50;;;;;;5076668;28;2479;-37
2022/01/08 13:13:16;;;;;;;;;;;22.50;46.60;;;;;;5077191;28;862;-37
2022/01/08 13:15:43;;;;;;;;;;;22.50;46.60;;;;;;5077316;28;955;-36
2022/01/08 13:18:16;;;;;;;;;;;22.60;47.30;;;;;;5076702;28;969;-37
2022/01/08 13:20:43;;;;;;;;;;;22.60;47.20;;;;;;5076269;28;1949;-38
2022/01/08 13:23:10;;;;;;;;;;;22.50;47.00;;;;;;5077689;28;942;-36
2022/01/08 13:25:37;;;;;;;;;;;22.60;47.80;;;;;;5077425;28;1043;-37
2022/01/08 13:28:05;;;;;;;;;;;22.60;47.80;;;;;;5076233;28;1031;-37
2022/01/08 13:30:33;;;;;;;;;;;22.60;47.50;;;;;;5075917;28;1047;-36
2022/01/08 13:33:00;;;;;;;;;;;22.60;47.80;;;;;;5077198;28;1015;-40
2022/01/08 13:35:27;;;;;;;;;;;22.70;47.30;;;;;;5075258;28;1005;-42
2022/01/08 13:37:54;;;;;;;;;;;22.60;47.40;;;;;;5076113;28;1270;-38
2022/01/08 13:40:25;;;;;;;;;;;22.70;47.90;;;;;;5076663;28;1981;-38
2022/01/08 13:42:53;;;;;;;;;;;22.80;47.00;;;;;;5077097;28;1044;-38
2022/01/08 13:45:22;;;;;;;;;;;22.80;47.20;;;;;;5075575;28;1041;-38
2022/01/08 13:47:49;;;;;;;;;;;22.80;47.20;;;;;;5076981;28;1030;-38
2022/01/08 13:50:20;;;;;;;;;;;22.80;47.00;;;;;;5076807;28;982;-39
2022/01/08 13:52:50;;;;;;;;;;;22.80;47.20;;;;;;5075746;28;1052;-38
2022/01/08 13:55:19;;;;;;;;;;;22.80;47.20;;;;;;5076279;28;1019;-39
2022/01/08 13:57:47;;;;;;;;;;;22.80;47.30;;;;;;5076939;28;932;-39
2022/01/08 14:00:15;;;;;;;;;;;22.80;47.10;;;;;;5077197;28;1894;-38
2022/01/08 14:02:43;;;;;;;;;;;22.90;47.90;;;;;;5076409;28;952;-39
2022/01/08 14:05:10;;;;;;;;;;;22.90;47.40;;;;;;5075357;28;1030;-39
2022/01/08 14:07:37;;;;;;;;;;;22.90;47.30;;;;;;5075945;28;1015;-37
2022/01/08 14:10:05;;;;;;;;;;;23.00;47.20;;;;;;5074920;28;952;-38
2022/01/08 14:12:32;;;;;;;;;;;22.90;47.40;;;;;;5076067;28;984;-37
2022/01/08 14:15:03;;;;;;;;;;;22.80;47.40;;;;;;5075869;28;1051;-37
2022/01/08 14:17:31;;;;;;;;;;;22.80;47.50;;;;;;5077334;28;988;-38
2022/01/08 14:19:59;;;;;;;;;;;22.80;47.90;;;;;;5077369;28;1975;-37
2022/01/08 14:22:27;;;;;;;;;;;22.80;47.80;;;;;;5076746;28;944;-37
2022/01/08 14:24:54;;;;;;;;;;;22.70;48.00;;;;;;5076658;28;1058;-38
2022/01/08 14:27:22;;;;;;;;;;;22.70;47.80;;;;;;5076851;28;1062;-38
2022/01/08 14:30:07;;;;;;;;;;;22.70;47.50;;;;;;5076805;28;980;-39
2022/01/08 14:32:34;;;;;;;;;;;22.70;47.30;;;;;;5076355;28;944;-37
2022/01/08 14:35:02;;;;;;;;;;;22.60;47.30;;;;;;5075618;28;979;-37
2022/01/08 14:37:30;;;;;;;;;;;22.60;47.50;;;;;;5076023;28;1123;-37
2022/01/08 14:40:00;;;;;;;;;;;22.60;47.60;;;;;;5076326;28;1893;-38
2022/01/08 14:42:30;;;;;;;;;;;22.50;47.60;;;;;;5077141;28;1004;-37
2022/01/08 14:44:58;;;;;;;;;;;22.50;47.70;;;;;;5076711;28;1396;-38
2022/01/08 14:47:32;;;;;;;;;;;22.50;48.00;;;;;;5076955;28;988;-46
2022/01/08 14:49:59;;;;;;;;;;;22.40;47.90;;;;;;5076369;28;941;-47
2022/01/08 14:52:27;;;;;;;;;;;22.40;48.10;;;;;;5074827;28;1064;-45
2022/01/08 14:54:53;;;;;;;;;;;22.40;48.20;;;;;;5075698;28;984;-46
2022/01/08 14:57:20;;;;;;;;;;;22.40;48.20;;;;;;5076025;28;1004;-38